Stations météo

réclame
Mon MeteoGroup
Lampedusa, Italie (16490): Température de l'air & dewpoint: 08.08.2018 08:00:00 - 14.08.2018 08:00:00 (CEST)Lampedusa, Italie (16490): Vitesse du vent: 08.08.2018 08:00:00 - 14.08.2018 08:00:00 (CEST)Lampedusa, Italie (16490): Direction du vent: 08.08.2018 08:00:00 - 14.08.2018 08:00:00 (CEST)Lampedusa, Italie (16490): visibility: 08.08.2018 08:00:00 - 14.08.2018 08:00:00 (CEST)
Date & Time tt [°C] td [°C] ff [km/h] ff [knt] dd vv [km]
14.08.2018 08:00:00 27,0 23,0 4 2 WNW 10
14.08.2018 07:00:00 26,0 23,0 2 1 NE 10
14.08.2018 06:00:00 26,0 23,0 4 2 N 10
14.08.2018 05:00:00 - - - - - -
14.08.2018 04:00:00 - - - - - -
14.08.2018 03:00:00 - - - - - -
14.08.2018 02:00:00 - - - - - -
14.08.2018 01:00:00 - - - - - -
14.08.2018 00:00:00 - - - - - -
13.08.2018 23:00:00 27,0 25,0 11 6 SE 10
13.08.2018 22:00:00 27,0 25,0 11 6 ESE 10
13.08.2018 21:00:00 27,0 25,0 11 6 E 10
13.08.2018 20:00:00 28,0 25,0 8 4 E 10
13.08.2018 19:00:00 28,0 25,0 8 4 ENE 10
13.08.2018 18:00:00 28,0 24,0 4 2 SE 10
13.08.2018 17:00:00 28,0 24,0 5 3 ESE 10
13.08.2018 16:00:00 29,0 24,0 11 6 SW 10
13.08.2018 15:00:00 28,0 24,0 9 5 SSW 10
13.08.2018 14:00:00 28,0 24,0 9 5 SSW 10
13.08.2018 13:00:00 29,0 24,0 13 7 S 10
13.08.2018 12:00:00 28,0 24,0 13 7 S 10
13.08.2018 11:00:00 28,0 24,0 15 8 SSE 10
13.08.2018 10:00:00 28,0 24,0 13 7 S 10
13.08.2018 09:00:00 28,0 24,0 11 6 S 10
13.08.2018 08:00:00 27,0 23,0 11 6 SSE 10
13.08.2018 07:00:00 27,0 24,0 11 6 S 10
13.08.2018 06:00:00 27,0 24,0 9 5 SSE 10
13.08.2018 05:00:00 - - - - - -
13.08.2018 04:00:00 - - - - - -
13.08.2018 03:00:00 - - - - - -
13.08.2018 02:00:00 - - - - - -
13.08.2018 01:00:00 - - - - - -
13.08.2018 00:00:00 - - - - - -
12.08.2018 23:00:00 - - - - - -
12.08.2018 22:00:00 28,0 24,0 9 5 SSE 10
12.08.2018 21:00:00 28,0 24,0 5 3 E 10
12.08.2018 20:00:00 28,0 23,0 5 3 ESE 10
12.08.2018 19:00:00 29,0 23,0 5 3 SE 10
12.08.2018 18:00:00 29,0 23,0 9 5 SSE 10
12.08.2018 17:00:00 30,0 24,0 8 4 ESE 10
12.08.2018 16:00:00 30,0 24,0 5 3 SSW 10
12.08.2018 15:00:00 29,0 25,0 8 4 S 10
12.08.2018 14:00:00 30,0 25,0 9 5 S 10
12.08.2018 13:00:00 29,0 25,0 11 6 SW 10
12.08.2018 12:00:00 29,0 24,0 5 3 ESE 10
12.08.2018 11:00:00 28,0 25,0 8 4 ENE 10
12.08.2018 10:00:00 28,0 25,0 8 4 NNE 10
12.08.2018 09:00:00 28,0 25,0 9 5 N 10
12.08.2018 08:00:00 27,0 25,0 9 5 NNW 10
12.08.2018 07:00:00 26,0 25,0 5 3 WNW 10
12.08.2018 06:00:00 26,0 25,0 5 3 NW 10
12.08.2018 05:00:00 - - - - - -
12.08.2018 04:00:00 - - - - - -
12.08.2018 03:00:00 - - - - - -
12.08.2018 02:00:00 - - - - - -
12.08.2018 01:00:00 - - - - - -
12.08.2018 00:00:00 - - - - - -
11.08.2018 23:00:00 27,0 24,0 15 8 NNW 10
11.08.2018 22:00:00 - - - - - -
11.08.2018 21:00:00 27,0 24,0 18 10 N 10
11.08.2018 20:00:00 28,0 24,0 16 9 N 10
11.08.2018 19:00:00 28,0 24,0 21 11 NNW 10
11.08.2018 18:00:00 29,0 24,0 18 10 NNW 10
11.08.2018 17:00:00 29,0 23,0 21 11 NW 10
11.08.2018 16:00:00 29,0 23,0 28 15 NNW 10
11.08.2018 15:00:00 29,0 23,0 28 15 N 10
11.08.2018 14:00:00 29,0 23,0 21 11 N 10
11.08.2018 13:00:00 29,0 24,0 28 15 N 10
11.08.2018 12:00:00 29,0 24,0 24 13 N 10
11.08.2018 11:00:00 29,0 24,0 24 13 N 10
11.08.2018 10:00:00 28,0 24,0 16 9 NNW 10
11.08.2018 09:00:00 28,0 24,0 16 9 NNW 10
11.08.2018 08:00:00 27,0 25,0 13 7 NW 10
11.08.2018 07:00:00 26,0 24,0 8 4 WNW 10
11.08.2018 06:00:00 27,0 24,0 13 7 NNW 10
11.08.2018 05:00:00 - - - - - -
11.08.2018 04:00:00 - - - - - -
11.08.2018 03:00:00 - - - - - -
11.08.2018 02:00:00 - - - - - -
11.08.2018 01:00:00 - - - - - -
11.08.2018 00:00:00 - - - - - -
10.08.2018 23:00:00 - - - - - -
10.08.2018 22:00:00 27,0 23,0 9 5 N 10
10.08.2018 21:00:00 27,0 22,0 8 4 N 10
10.08.2018 20:00:00 28,0 22,0 11 6 N 10
10.08.2018 19:00:00 29,0 23,0 13 7 NNW 10
10.08.2018 18:00:00 29,0 23,0 11 6 N 10
10.08.2018 17:00:00 29,0 23,0 13 7 NNE 10
10.08.2018 16:00:00 29,0 22,0 13 7 NNE 10
10.08.2018 15:00:00 29,0 23,0 8 4 ENE 10
10.08.2018 14:00:00 29,0 23,0 9 5 NE 10
10.08.2018 13:00:00 - - - - - -
10.08.2018 12:00:00 28,0 23,0 13 7 NNE 10
10.08.2018 11:00:00 28,0 23,0 8 4 NNE 10
10.08.2018 10:00:00 27,0 24,0 8 4 NE 10
10.08.2018 09:00:00 27,0 24,0 11 6 NE 10
10.08.2018 08:00:00 27,0 24,0 9 5 NE 10
10.08.2018 07:00:00 26,0 24,0 11 6 ENE 10
10.08.2018 06:00:00 26,0 24,0 11 6 E 10
10.08.2018 05:00:00 - - - - - -
10.08.2018 04:00:00 - - - - - -
10.08.2018 03:00:00 - - - - - -
10.08.2018 02:00:00 - - - - - -
10.08.2018 01:00:00 - - - - - -
10.08.2018 00:00:00 - - - - - -
09.08.2018 23:00:00 - - - - - -
09.08.2018 22:00:00 27,0 23,0 11 6 ENE 10
09.08.2018 21:00:00 27,0 23,0 9 5 ENE 10
09.08.2018 20:00:00 27,0 22,0 4 2 - 10
09.08.2018 19:00:00 28,0 23,0 9 5 E 10
09.08.2018 18:00:00 28,0 23,0 9 5 ESE 10
09.08.2018 17:00:00 29,0 23,0 9 5 ESE 10
09.08.2018 16:00:00 29,0 23,0 11 6 E 10
09.08.2018 15:00:00 29,0 23,0 9 5 E 10
09.08.2018 14:00:00 29,0 22,0 8 4 E 10
09.08.2018 13:00:00 28,0 23,0 9 5 E 10
09.08.2018 12:00:00 28,0 23,0 9 5 E 10
09.08.2018 11:00:00 28,0 23,0 9 5 ENE 10
09.08.2018 10:00:00 27,0 23,0 9 5 ENE 10
09.08.2018 09:00:00 27,0 23,0 13 7 ENE 10
09.08.2018 08:00:00 26,0 23,0 11 6 NE 10
09.08.2018 07:00:00 25,0 22,0 9 5 NE 10
09.08.2018 06:00:00 26,0 23,0 13 7 NNE 10
09.08.2018 05:00:00 - - - - - -
09.08.2018 04:00:00 - - - - - -
09.08.2018 03:00:00 - - - - - -
09.08.2018 02:00:00 - - - - - -
09.08.2018 01:00:00 - - - - - -
09.08.2018 00:00:00 - - - - - -
08.08.2018 23:00:00 - - - - - -
08.08.2018 22:00:00 27,0 23,0 9 5 ENE 10
08.08.2018 21:00:00 27,0 23,0 11 6 ENE 10
08.08.2018 20:00:00 27,0 23,0 11 6 NE 10
08.08.2018 19:00:00 28,0 23,0 11 6 ENE 10
08.08.2018 18:00:00 28,0 23,0 11 6 NE 10
08.08.2018 17:00:00 28,0 23,0 11 6 NE 10
08.08.2018 16:00:00 29,0 22,0 15 8 NE 10
08.08.2018 15:00:00 28,0 23,0 15 8 ENE 10
08.08.2018 14:00:00 28,0 21,0 15 8 NE 10
08.08.2018 13:00:00 28,0 21,0 18 10 ENE 10
08.08.2018 12:00:00 28,0 22,0 18 10 E 10
08.08.2018 11:00:00 27,0 21,0 21 11 ENE 10
08.08.2018 10:00:00 27,0 20,0 24 13 ENE 10
08.08.2018 09:00:00 24,0 18,0 18 10 ENE 8
08.08.2018 08:00:00 22,0 17,0 21 11 NE 6

tt = Température de l'air
td = dewpoint
ff = Vitesse du vent
dd = Direction du vent
vv = visibility

stations d'obs. à proximité